Deer Harbor, WA

9:28 PM PST on March 01, 2015 (GMT -0800)
APRSWXNET Deer Harbor WA US | Change Station
CLOSE
Current Station
Personal Weather Station
Location: Deer Harbor, WA
Elevation: 219 ft
Nearby Weather Stations

Elev 219 ft 48.63 °N, 123.02 °W | Updated 33 minutes ago

Rain
Rain
40 °F
Feels Like 40 °F
N
1
Wind Variable Wind from NW
Gusts 5.0 mph

Today
High -- | Low -- °F
--% Chance of Precip.
Yesterday
High -- | Low -- °F
Precip. -- in
6:53 AM 5:55 PM
Waxing Gibbous, 89% visible
Pressure 30.03 in
Visibility 10.0 miles
Clouds Overcast 3300 ft
Windchill 40 °F
Dew Point 38 °F
Humidity 94%
Rainfall 0.00 in
Snow Depth Not available.
UV 0 out of 12
Pollen 6.50 out of 12
Air Quality Not available.
Flu Activity Not available.
METAR KFHR 020453Z AUTO 35008KT 10SM -RA OVC033 05/03 A3003 RMK AO2 RAB13 SLP169 P0000 T00500028 $

More Conditions Fewer Conditions

Pressure 30.03 in
Visibility 10.0 miles
Clouds Overcast 3300 ft
Windchill 40 °F
Dew Point 38 °F
Humidity 94%
Rainfall 0.00 in
Snow Depth Not available.
UV 0 out of 12
Pollen 6.50 out of 12
Air Quality Not available.
Flu Activity Not available.
METAR KFHR 020453Z AUTO 35008KT 10SM -RA OVC033 05/03 A3003 RMK AO2 RAB13 SLP169 P0000 T00500028 $

More Conditions Fewer Conditions

10-Day Weather Forecast

Almanac

Astronomy

Mar. 01, 2015 Rise Set
Actual Time
Civil Twilight
Nautical Twilight
Astronomical Twilight
Moon
Length of Visible Light
Length of Day
Tomorrow will be .
, % of the Moon is Illuminated

Today's Extremes

State Highs State Lows

Community

WunderPhotos

Upload Photos

1,801,731 photos uploaded!

WunderBlogs® & News

Nearby

Air Quality

  Air Quality AQ Index Pollutant
Not available.

Snow Depth

Station Depth Elevation

Earthquake Activity

City Distance Mag. Time & Date
Minimum magnitude displayed is 2.5.

Coastal Water Temperatures

Place Temperature

Nearby Weather Stations